createdAt,value
2023-02-15T00:00:53.548Z,80.00
2023-02-15T00:06:02.982Z,80.30
2023-02-15T00:11:11.030Z,80.30
2023-02-15T00:16:19.619Z,80.20
2023-02-15T00:21:28.143Z,80.70
2023-02-15T00:26:36.770Z,81.10
2023-02-15T00:31:45.854Z,81.30
2023-02-15T00:36:54.561Z,81.20
2023-02-15T00:42:03.048Z,81.20
2023-02-15T00:47:12.229Z,81.40
2023-02-15T00:52:20.955Z,81.70
2023-02-15T00:57:29.792Z,82.10
2023-02-15T01:02:38.499Z,82.00
2023-02-15T01:07:47.352Z,81.70
2023-02-15T01:12:56.042Z,81.70
2023-02-15T01:18:04.789Z,82.30
2023-02-15T01:23:13.336Z,82.40
2023-02-15T01:28:22.682Z,82.40
2023-02-15T01:33:31.747Z,82.30
2023-02-15T01:38:40.905Z,82.80
2023-02-15T01:43:49.859Z,83.00
2023-02-15T01:48:58.756Z,83.30
2023-02-15T01:54:07.055Z,83.60
2023-02-15T01:59:17.456Z,83.40
2023-02-15T02:04:15.753Z,83.50
2023-02-15T02:09:24.791Z,84.20
2023-02-15T02:14:33.885Z,84.50
2023-02-15T02:19:42.934Z,84.70
2023-02-15T02:24:51.492Z,85.00
2023-02-15T02:30:00.720Z,85.20
2023-02-15T02:35:09.097Z,85.40
2023-02-15T02:40:18.171Z,85.50
2023-02-15T02:45:26.867Z,85.40
2023-02-15T02:50:36.093Z,85.20
2023-02-15T02:55:44.612Z,85.70
2023-02-15T03:00:53.543Z,85.90
2023-02-15T03:06:02.513Z,85.90
2023-02-15T03:11:10.761Z,86.40
2023-02-15T03:16:19.557Z,86.50
2023-02-15T03:21:28.900Z,86.60
2023-02-15T03:26:37.414Z,86.60
2023-02-15T03:31:47.022Z,86.90
2023-02-15T03:36:55.708Z,87.00
2023-02-15T03:42:07.808Z,87.10
2023-02-15T03:47:06.887Z,87.40
2023-02-15T03:52:15.802Z,87.70
2023-02-15T03:57:25.178Z,87.90
2023-02-15T04:02:34.490Z,88.00
2023-02-15T04:07:43.157Z,88.10
2023-02-15T04:12:52.797Z,88.40
2023-02-15T04:18:02.212Z,88.60
2023-02-15T04:23:11.354Z,88.50
2023-02-15T04:28:23.140Z,88.50
2023-02-15T04:33:22.260Z,88.60
2023-02-15T04:38:31.981Z,88.50
2023-02-15T04:43:41.151Z,88.40
2023-02-15T04:48:49.848Z,88.50
2023-02-15T04:53:58.638Z,88.70
2023-02-15T04:59:06.934Z,88.80
2023-02-15T05:04:16.202Z,88.80
2023-02-15T05:09:25.208Z,88.90
2023-02-15T05:14:35.019Z,89.20
2023-02-15T05:19:43.548Z,90.50
2023-02-15T05:24:52.264Z,90.30
2023-02-15T05:30:01.063Z,90.30
2023-02-15T05:35:09.809Z,90.30
2023-02-15T05:40:18.486Z,90.20
2023-02-15T05:45:27.268Z,90.10
2023-02-15T05:50:36.218Z,90.20
2023-02-15T05:55:45.962Z,90.10
2023-02-15T06:00:54.808Z,90.00
2023-02-15T06:06:04.440Z,89.80
2023-02-15T06:11:12.848Z,89.90
2023-02-15T06:16:22.253Z,89.80
2023-02-15T06:21:31.574Z,89.60
2023-02-15T06:26:41.691Z,89.40
2023-02-15T06:31:40.052Z,89.30
2023-02-15T06:36:48.552Z,89.20
2023-02-15T06:41:57.864Z,88.50
2023-02-15T06:47:07.724Z,88.50
2023-02-15T06:52:16.243Z,88.20
2023-02-15T06:57:24.949Z,87.70
2023-02-15T07:02:34.626Z,87.80
2023-02-15T07:07:43.580Z,87.30
2023-02-15T07:12:52.095Z,87.70
2023-02-15T07:18:01.105Z,87.80
2023-02-15T07:23:09.512Z,87.20
2023-02-15T07:28:18.507Z,87.30
2023-02-15T07:33:27.471Z,87.20
2023-02-15T07:38:36.905Z,86.70
2023-02-15T07:43:46.031Z,86.90
2023-02-15T07:48:54.990Z,87.10
2023-02-15T07:54:04.600Z,86.80
2023-02-15T07:59:14.048Z,86.70
2023-02-15T08:04:22.688Z,87.50
2023-02-15T08:09:31.725Z,86.60
2023-02-15T08:14:40.430Z,85.70
2023-02-15T08:19:49.716Z,85.00
2023-02-15T08:24:58.048Z,84.90
2023-02-15T08:30:07.362Z,83.60
2023-02-15T08:35:15.751Z,84.00
2023-02-15T08:40:24.586Z,82.70
2023-02-15T08:45:33.021Z,82.70
2023-02-15T08:50:41.975Z,82.60
2023-02-15T08:55:50.345Z,82.60
2023-02-15T09:01:00.331Z,82.10
2023-02-15T09:06:08.246Z,81.10
2023-02-15T09:11:17.186Z,79.70
2023-02-15T09:16:25.579Z,80.20
2023-02-15T09:21:34.628Z,80.50
2023-02-15T09:26:42.805Z,80.90
2023-02-15T09:31:51.742Z,79.70
2023-02-15T09:36:59.999Z,79.20
2023-02-15T09:42:08.545Z,79.00
2023-02-15T09:47:17.128Z,79.40
2023-02-15T09:52:26.297Z,78.30
2023-02-15T09:57:35.139Z,77.90
2023-02-15T10:02:43.743Z,77.90
2023-02-15T10:07:52.391Z,78.70
2023-02-15T10:13:01.538Z,75.80
2023-02-15T10:18:10.186Z,76.30
2023-02-15T10:23:20.277Z,76.40
2023-02-15T10:28:18.330Z,76.90
2023-02-15T10:33:28.058Z,77.50
2023-02-15T10:38:36.760Z,76.20
2023-02-15T10:43:45.781Z,76.10
2023-02-15T10:48:54.336Z,76.30
2023-02-15T10:54:02.906Z,75.90
2023-02-15T10:59:11.288Z,73.50
2023-02-15T11:04:20.320Z,73.50
2023-02-15T11:09:28.717Z,73.00
2023-02-15T11:14:37.547Z,72.40
2023-02-15T11:19:45.904Z,75.00
2023-02-15T11:24:55.858Z,76.90
2023-02-15T11:30:04.463Z,76.10
2023-02-15T11:35:13.444Z,76.30
2023-02-15T11:40:22.116Z,75.30
2023-02-15T11:45:31.416Z,74.90
2023-02-15T11:50:39.824Z,75.80
2023-02-15T11:55:48.491Z,75.20
2023-02-15T12:00:57.014Z,74.50
2023-02-15T12:06:06.362Z,75.40
2023-02-15T12:11:14.871Z,74.80
2023-02-15T12:16:23.575Z,75.80
2023-02-15T12:21:31.903Z,76.50
2023-02-15T12:26:40.638Z,76.60
2023-02-15T12:31:49.812Z,76.50
2023-02-15T12:36:59.252Z,75.20
2023-02-15T12:42:07.565Z,76.10
2023-02-15T12:47:16.816Z,75.50
2023-02-15T12:52:25.482Z,73.70
2023-02-15T12:57:34.542Z,72.90
2023-02-15T13:02:43.219Z,75.40
2023-02-15T13:07:51.671Z,75.40
2023-02-15T13:13:00.448Z,74.30
2023-02-15T13:18:10.037Z,75.90
2023-02-15T13:23:18.214Z,76.10
2023-02-15T13:28:27.626Z,75.20
2023-02-15T13:33:36.453Z,75.70
2023-02-15T13:38:44.708Z,75.50
2023-02-15T13:43:53.088Z,75.20
2023-02-15T13:49:02.166Z,76.10
2023-02-15T13:54:10.456Z,77.40
2023-02-15T13:59:19.342Z,77.20
2023-02-15T14:04:27.652Z,77.60
2023-02-15T14:09:37.654Z,77.70
2023-02-15T14:14:36.363Z,77.30
2023-02-15T14:19:45.206Z,77.60
2023-02-15T14:24:53.998Z,77.10
2023-02-15T14:30:03.548Z,76.90
2023-02-15T14:35:11.757Z,77.10
2023-02-15T14:40:20.798Z,77.80
2023-02-15T14:45:31.989Z,78.20
2023-02-15T14:50:38.011Z,78.30
2023-02-15T14:55:46.571Z,78.20
2023-02-15T15:00:55.195Z,78.80
2023-02-15T15:06:05.713Z,79.80
2023-02-15T15:11:12.355Z,80.20
2023-02-15T15:16:21.162Z,80.10
2023-02-15T15:21:30.706Z,79.70
2023-02-15T15:26:39.150Z,80.10
2023-02-15T15:31:48.102Z,79.60
2023-02-15T15:36:56.927Z,79.60
2023-02-15T15:42:06.240Z,80.40
2023-02-15T15:47:14.428Z,79.80
2023-02-15T15:52:24.375Z,80.10
2023-02-15T15:57:33.029Z,81.20
2023-02-15T16:02:42.193Z,81.90
2023-02-15T16:07:50.954Z,82.50
2023-02-15T16:12:59.271Z,82.20
2023-02-15T16:18:07.885Z,82.40
2023-02-15T16:23:16.895Z,82.30
2023-02-15T16:28:25.776Z,82.50
2023-02-15T16:33:35.633Z,82.60
2023-02-15T16:38:44.330Z,83.10
2023-02-15T16:43:53.374Z,82.20
2023-02-15T16:49:02.052Z,82.90
2023-02-15T16:54:11.109Z,83.10
2023-02-15T16:59:19.769Z,83.10
2023-02-15T17:04:29.432Z,82.70
2023-02-15T17:09:38.341Z,83.00
2023-02-15T17:14:47.086Z,82.70
2023-02-15T17:19:55.513Z,83.20
2023-02-15T17:25:05.428Z,83.40
2023-02-15T17:30:14.783Z,83.00
2023-02-15T17:35:23.843Z,83.30
2023-02-15T17:40:33.092Z,83.30
2023-02-15T17:45:42.674Z,83.80
2023-02-15T17:50:52.348Z,83.50
2023-02-15T17:56:02.259Z,83.10
2023-02-15T18:01:12.971Z,83.60
2023-02-15T18:06:13.292Z,84.00
2023-02-15T18:11:12.909Z,83.30
2023-02-15T18:16:22.652Z,83.60
2023-02-15T18:21:31.941Z,83.20
2023-02-15T18:26:41.500Z,83.60
2023-02-15T18:31:44.597Z,84.10
2023-02-15T18:36:56.070Z,84.60
2023-02-15T18:41:54.929Z,84.80
2023-02-15T18:47:03.961Z,85.70
2023-02-15T18:52:15.005Z,86.20
2023-02-15T18:57:15.067Z,86.60
2023-02-15T19:02:16.439Z,86.80
2023-02-15T19:07:18.144Z,87.30
2023-02-15T19:12:17.644Z,87.00
2023-02-15T19:17:27.130Z,86.60
2023-02-15T19:22:36.034Z,86.40
2023-02-15T19:27:45.134Z,86.50
2023-02-15T19:32:54.416Z,86.70
2023-02-15T19:38:03.668Z,86.80
2023-02-15T19:43:12.167Z,87.10
2023-02-15T19:48:21.398Z,87.20
2023-02-15T19:53:30.016Z,87.90
2023-02-15T19:58:38.892Z,88.60
2023-02-15T20:03:47.385Z,89.00
2023-02-15T20:08:57.145Z,89.20
2023-02-15T20:14:05.777Z,89.50
2023-02-15T20:19:14.976Z,89.50
2023-02-15T20:24:23.704Z,89.40
2023-02-15T20:29:32.552Z,89.30
2023-02-15T20:34:41.690Z,88.90
2023-02-15T20:39:50.448Z,89.40
2023-02-15T20:44:58.954Z,89.20
2023-02-15T20:50:07.773Z,89.20
2023-02-15T20:55:16.417Z,88.90
2023-02-15T21:00:25.420Z,89.00
2023-02-15T21:05:33.993Z,89.20
2023-02-15T21:10:42.806Z,89.60
2023-02-15T21:15:51.357Z,89.70
2023-02-15T21:21:00.040Z,89.80
2023-02-15T21:26:08.626Z,90.10
2023-02-15T21:31:17.634Z,90.20
2023-02-15T21:36:25.887Z,90.40
2023-02-15T21:41:35.027Z,90.50
2023-02-15T21:46:43.239Z,90.50
2023-02-15T21:51:52.154Z,90.50
2023-02-15T21:57:00.385Z,90.60
2023-02-15T22:02:09.325Z,90.80
2023-02-15T22:07:17.692Z,90.50
2023-02-15T22:12:26.758Z,90.30
2023-02-15T22:17:35.118Z,90.20
2023-02-15T22:22:44.035Z,90.40
2023-02-15T22:27:52.506Z,90.50
2023-02-15T22:33:01.486Z,90.50
2023-02-15T22:38:09.942Z,90.50
2023-02-15T22:43:19.274Z,90.50
2023-02-15T22:48:28.670Z,90.90
2023-02-15T22:53:38.124Z,91.00
2023-02-15T22:58:46.537Z,91.00
2023-02-15T23:03:55.428Z,91.10
2023-02-15T23:09:03.907Z,91.10
2023-02-15T23:14:14.035Z,91.10
2023-02-15T23:19:12.405Z,91.10
2023-02-15T23:24:21.248Z,91.20
2023-02-15T23:29:29.690Z,91.20
2023-02-15T23:34:38.537Z,91.20
2023-02-15T23:39:46.896Z,91.20
2023-02-15T23:44:55.808Z,91.40
2023-02-15T23:50:04.667Z,91.50
2023-02-15T23:55:13.922Z,91.60
